Terminal Aerodrome Forecast
Issued by NWS Sioux Falls, SD

Home | Current Version | Previous Version | Graphics & Text | Print | Product List | Glossary Off
Versions: 1 2 3 4 5 6 7 8 9 10 11 12 13 14 15 16 17 18 19 20 21 22 23 24 25 26 27 28 29 30 31 32 33

000
FTUS43 KFSD 190255 AAA
TAFSUX
TAF AMD
KSUX 190255Z 1903/1924 33014G22KT P6SM SCT045 BKN200
     FM190600 36015G23KT P6SM BKN150
     FM190900 01016G26KT 2SM -FZDZ OVC025
     FM191100 01017G27KT 2SM -FZDZ OVC015
     FM191500 36017G27KT P6SM -FZDZ OVC015
     FM191800 01015G25KT P6SM OVC014=

USA.gov is the U.S. government's official web portal to all federal, state and local government web resources and services.